KTTS

Details ICAO KTTS
Name NASA Shuttle Landing Facility
Region United States
Timezone America/New_York (UTC-4.0)
Plans Departing 30
Arriving 27
Stats Elevation 10 ft / 3 m (AMSL)
Location 28.614891° -80.694371°
Runways 1
Magnetic Variation 6.853° W
Sunrise 2018-05-21 10:30:19 UTC / 2018-05-21 06:30:19 Local
Sunset 2018-05-22 00:11:18 UTC / 2018-05-21 20:11:18 Local
Advertisement - Login to hide

Runways

ID Width Length Bearing (true) Bearing (mag) Surface Threshold Offset Overrun Length
15 300 ft / 91 m 15,035 ft / 4,583 m 150.12° 156.97° Concrete 0 ft / 0 m 1,000 ft / 305 m
33 300 ft / 91 m 15,035 ft / 4,583 m 330.13° 336.98° Concrete 0 ft / 0 m 1,000 ft / 305 m

Map

Weather


0- 5 10 15 20 25 30 35+ Temperature / ° C

Clouds and Precipitation
Forecast for 2018-05-21 12:00 UTC. Updated 4 hours ago

Ground ~20,000 ft ~40,000 ft Winds

METAR

KTTS 211456Z AUTO 15004KT 6SM -DZ BR FEW012 FEW042 24/23 A3011 RMK AO2 RAB30E55DZB55 SLP200 P0001 60021 T02420226 52010

TAF

Not found

Frequencies

Unicom 123.60 MHz CTAF
Tower 128.55 MHz TWR
Ground 121.75 MHz GND
Approach 134.95 MHz ORLANDO APP/DEP
Warning: Do not use this data for real-world aviation or navigation. No guarantee of current accuracy is given.